createdAt,value
2024-01-25T00:00:16.568Z,31.00
2024-01-25T00:01:16.624Z,32.10
2024-01-25T00:02:16.599Z,36.50
2024-01-25T00:03:16.532Z,32.80
2024-01-25T00:04:16.683Z,33.80
2024-01-25T00:05:16.820Z,36.30
2024-01-25T00:06:16.529Z,35.50
2024-01-25T00:07:16.679Z,39.20
2024-01-25T00:08:16.464Z,37.80
2024-01-25T00:09:16.469Z,42.90
2024-01-25T00:10:16.636Z,31.50
2024-01-25T00:11:16.476Z,30.50
2024-01-25T00:12:16.457Z,42.70
2024-01-25T00:13:16.603Z,35.10
2024-01-25T00:14:16.447Z,38.60
2024-01-25T00:15:16.429Z,40.80
2024-01-25T00:16:16.408Z,35.70
2024-01-25T00:17:16.410Z,39.50
2024-01-25T00:18:16.436Z,35.30
2024-01-25T00:19:16.673Z,34.60
2024-01-25T00:20:16.490Z,38.00
2024-01-25T00:21:16.371Z,33.50
2024-01-25T00:22:16.440Z,37.70
2024-01-25T00:23:16.400Z,40.00
2024-01-25T00:24:16.326Z,36.90
2024-01-25T00:25:16.518Z,34.90
2024-01-25T00:26:16.321Z,35.10
2024-01-25T00:27:16.300Z,34.40
2024-01-25T00:28:16.369Z,35.50
2024-01-25T00:29:16.259Z,39.00
2024-01-25T00:30:16.246Z,35.10
2024-01-25T00:31:16.345Z,31.00
2024-01-25T00:32:16.231Z,31.70
2024-01-25T00:33:16.351Z,35.10
2024-01-25T00:34:16.304Z,40.40
2024-01-25T00:35:16.373Z,41.20
2024-01-25T00:36:16.212Z,35.90
2024-01-25T00:37:16.331Z,35.70
2024-01-25T00:38:16.167Z,31.10
2024-01-25T00:39:16.221Z,35.40
2024-01-25T00:40:16.407Z,37.30
2024-01-25T00:41:16.168Z,37.50
2024-01-25T00:42:16.155Z,30.90
2024-01-25T00:43:16.348Z,36.40
2024-01-25T00:44:16.139Z,42.40
2024-01-25T00:45:17.887Z,35.90
2024-01-25T00:46:16.321Z,37.10
2024-01-25T00:47:18.928Z,37.20
2024-01-25T00:48:17.044Z,39.30
2024-01-25T00:49:16.327Z,33.70
2024-01-25T00:50:16.262Z,29.80
2024-01-25T00:51:16.254Z,37.80
2024-01-25T00:52:17.925Z,37.70
2024-01-25T00:53:16.100Z,36.50
2024-01-25T00:54:16.040Z,37.50
2024-01-25T00:55:16.193Z,34.90
2024-01-25T00:56:16.059Z,29.90
2024-01-25T00:57:16.864Z,34.80
2024-01-25T00:58:16.120Z,35.00
2024-01-25T00:59:16.011Z,38.70
2024-01-25T01:00:17.741Z,36.30
2024-01-25T01:01:16.113Z,36.00
2024-01-25T01:02:16.038Z,36.10
2024-01-25T01:03:15.983Z,36.00
2024-01-25T01:04:16.003Z,34.80
2024-01-25T01:05:16.128Z,34.10
2024-01-25T01:06:15.939Z,33.70
2024-01-25T01:07:16.086Z,34.50
2024-01-25T01:08:15.907Z,33.00
2024-01-25T01:09:15.873Z,40.40
2024-01-25T01:10:15.980Z,33.30
2024-01-25T01:11:15.831Z,37.00
2024-01-25T01:12:15.845Z,36.80
2024-01-25T01:13:15.902Z,40.40
2024-01-25T01:14:15.827Z,39.90
2024-01-25T01:15:15.772Z,35.30
2024-01-25T01:16:15.888Z,33.30
2024-01-25T01:17:15.775Z,34.50
2024-01-25T01:18:15.876Z,37.40
2024-01-25T01:19:15.954Z,30.80
2024-01-25T01:20:16.034Z,34.30
2024-01-25T01:21:15.713Z,36.10
2024-01-25T01:22:15.788Z,42.20
2024-01-25T01:23:15.765Z,30.90
2024-01-25T01:24:15.711Z,36.10
2024-01-25T01:25:15.710Z,34.90
2024-01-25T01:26:15.670Z,34.00
2024-01-25T01:27:15.652Z,29.70
2024-01-25T01:28:15.805Z,39.60
2024-01-25T01:29:15.635Z,38.30
2024-01-25T01:30:15.637Z,32.80
2024-01-25T01:31:15.691Z,39.20
2024-01-25T01:32:15.614Z,36.10
2024-01-25T01:33:15.739Z,42.00
2024-01-25T01:34:15.824Z,38.60
2024-01-25T01:35:15.735Z,36.80
2024-01-25T01:36:15.584Z,39.50
2024-01-25T01:37:15.915Z,35.90
2024-01-25T01:38:15.554Z,38.10
2024-01-25T01:39:15.539Z,37.10
2024-01-25T01:40:15.624Z,36.50
2024-01-25T01:41:15.534Z,38.80
2024-01-25T01:42:15.514Z,35.80
2024-01-25T01:43:15.600Z,33.70
2024-01-25T01:44:15.519Z,33.30
2024-01-25T01:45:15.490Z,41.70
2024-01-25T01:46:15.500Z,34.80
2024-01-25T01:47:15.459Z,38.80
2024-01-25T01:48:15.550Z,32.60
2024-01-25T01:49:15.630Z,39.30
2024-01-25T01:50:15.710Z,34.90
2024-01-25T01:51:15.550Z,32.80
2024-01-25T01:52:15.443Z,35.70
2024-01-25T01:53:15.389Z,37.00
2024-01-25T01:54:15.388Z,36.10
2024-01-25T01:55:15.439Z,37.70
2024-01-25T01:56:15.357Z,34.70
2024-01-25T01:57:15.403Z,41.10
2024-01-25T01:58:15.443Z,39.20
2024-01-25T01:59:15.364Z,33.30
2024-01-25T02:00:15.327Z,37.70
2024-01-25T02:01:15.388Z,38.70
2024-01-25T02:02:15.453Z,39.40
2024-01-25T02:03:15.316Z,36.40
2024-01-25T02:04:15.407Z,38.30
2024-01-25T02:05:15.286Z,40.80
2024-01-25T02:06:15.282Z,34.00
2024-01-25T02:07:15.266Z,39.20
2024-01-25T02:08:15.226Z,32.10
2024-01-25T02:09:15.201Z,39.50
2024-01-25T02:10:15.217Z,31.50
2024-01-25T02:11:15.208Z,34.60
2024-01-25T02:12:15.218Z,36.90
2024-01-25T02:13:15.257Z,37.70
2024-01-25T02:14:15.232Z,36.00
2024-01-25T02:15:15.172Z,35.30
2024-01-25T02:16:15.400Z,38.50
2024-01-25T02:17:15.327Z,38.00
2024-01-25T02:18:15.243Z,36.60
2024-01-25T02:19:15.306Z,40.10
2024-01-25T02:20:15.311Z,32.50
2024-01-25T02:21:15.107Z,30.00
2024-01-25T02:22:15.133Z,32.10
2024-01-25T02:23:15.117Z,38.10
2024-01-25T02:24:15.071Z,33.20
2024-01-25T02:25:15.108Z,35.70
2024-01-25T02:26:15.045Z,37.00
2024-01-25T02:27:15.038Z,40.90
2024-01-25T02:28:15.118Z,33.30
2024-01-25T02:29:15.004Z,37.90
2024-01-25T02:30:14.994Z,36.80
2024-01-25T02:31:15.131Z,31.00
2024-01-25T02:32:15.023Z,42.40
2024-01-25T02:33:15.080Z,35.40
2024-01-25T02:34:15.105Z,37.50
2024-01-25T02:35:15.164Z,37.00
2024-01-25T02:36:14.941Z,42.40
2024-01-25T02:37:14.986Z,40.50
2024-01-25T02:38:14.901Z,29.90
2024-01-25T02:39:14.925Z,33.20
2024-01-25T02:40:14.964Z,33.80
2024-01-25T02:41:14.872Z,32.20
2024-01-25T02:42:14.864Z,40.90
2024-01-25T02:43:14.970Z,37.10
2024-01-25T02:44:14.842Z,37.30
2024-01-25T02:45:14.932Z,36.20
2024-01-25T02:46:14.876Z,35.50
2024-01-25T02:47:14.827Z,36.10
2024-01-25T02:48:14.889Z,35.90
2024-01-25T02:49:15.100Z,37.90
2024-01-25T02:50:14.878Z,40.10
2024-01-25T02:51:14.845Z,39.20
2024-01-25T02:52:14.901Z,39.40
2024-01-25T02:53:14.757Z,33.40
2024-01-25T02:54:14.772Z,40.80
2024-01-25T02:55:14.905Z,37.90
2024-01-25T02:56:14.785Z,39.40
2024-01-25T02:57:14.742Z,43.00
2024-01-25T02:58:14.780Z,40.60
2024-01-25T02:59:14.688Z,35.20
2024-01-25T03:00:14.684Z,34.30
2024-01-25T03:01:14.775Z,38.80
2024-01-25T03:02:16.577Z,35.20
2024-01-25T03:03:14.671Z,38.90
2024-01-25T03:04:14.789Z,31.30
2024-01-25T03:05:14.700Z,39.90
2024-01-25T03:06:14.707Z,39.00
2024-01-25T03:07:14.753Z,31.60
2024-01-25T03:08:14.685Z,36.60
2024-01-25T03:09:14.649Z,39.10
2024-01-25T03:10:14.891Z,36.20
2024-01-25T03:11:14.645Z,34.00
2024-01-25T03:12:14.573Z,31.40
2024-01-25T03:13:14.682Z,34.30
2024-01-25T03:14:14.598Z,35.50
2024-01-25T03:15:14.558Z,38.20
2024-01-25T03:16:14.536Z,34.20
2024-01-25T03:17:14.522Z,33.90
2024-01-25T03:18:14.612Z,38.70
2024-01-25T03:19:14.595Z,35.90
2024-01-25T03:20:14.588Z,37.30
2024-01-25T03:21:14.494Z,33.50
2024-01-25T03:22:14.559Z,40.00
2024-01-25T03:23:14.452Z,33.30
2024-01-25T03:24:14.440Z,39.50
2024-01-25T03:25:14.538Z,35.00
2024-01-25T03:26:14.502Z,33.90
2024-01-25T03:27:14.790Z,35.10
2024-01-25T03:28:14.623Z,36.00
2024-01-25T03:29:14.426Z,39.10
2024-01-25T03:30:14.351Z,41.10
2024-01-25T03:31:14.491Z,30.50
2024-01-25T03:32:14.349Z,39.50
2024-01-25T03:33:14.441Z,37.10
2024-01-25T03:34:14.519Z,36.70
2024-01-25T03:35:14.362Z,34.90
2024-01-25T03:36:14.294Z,34.40
2024-01-25T03:37:14.320Z,35.80
2024-01-25T03:38:14.280Z,33.20
2024-01-25T03:39:14.296Z,31.80
2024-01-25T03:40:14.357Z,37.60
2024-01-25T03:41:14.263Z,37.50
2024-01-25T03:42:14.256Z,36.60
2024-01-25T03:43:20.573Z,35.90
2024-01-25T03:44:14.305Z,38.60
2024-01-25T03:45:14.247Z,34.80
2024-01-25T03:46:14.287Z,34.50
2024-01-25T03:47:14.198Z,45.20
2024-01-25T03:48:14.258Z,38.70
2024-01-25T03:49:14.298Z,35.90
2024-01-25T03:50:14.185Z,42.90
2024-01-25T03:51:14.182Z,38.00
2024-01-25T03:52:14.243Z,38.20
2024-01-25T03:53:14.134Z,34.70
2024-01-25T03:54:14.132Z,33.00
2024-01-25T03:55:14.172Z,32.30
2024-01-25T03:56:14.098Z,43.30
2024-01-25T03:57:14.090Z,26.90
2024-01-25T03:58:14.163Z,38.30
2024-01-25T03:59:14.115Z,34.70
2024-01-25T04:00:14.092Z,36.80
2024-01-25T04:01:14.139Z,38.50
2024-01-25T04:02:14.325Z,30.70
2024-01-25T04:03:14.083Z,31.90
2024-01-25T04:04:14.243Z,36.10
2024-01-25T04:05:14.059Z,30.70
2024-01-25T04:06:14.152Z,36.30
2024-01-25T04:07:14.096Z,33.80
2024-01-25T04:08:13.989Z,38.10
2024-01-25T04:09:13.957Z,33.80
2024-01-25T04:10:14.058Z,35.60
2024-01-25T04:11:13.962Z,32.00
2024-01-25T04:12:13.973Z,44.20
2024-01-25T04:13:14.099Z,38.90
2024-01-25T04:14:13.913Z,37.10
2024-01-25T04:15:13.933Z,37.10
2024-01-25T04:16:13.930Z,32.30
2024-01-25T04:17:13.884Z,35.60
2024-01-25T04:18:14.035Z,34.40
2024-01-25T04:19:14.081Z,34.50
2024-01-25T04:20:14.080Z,40.00
2024-01-25T04:21:13.877Z,37.70
2024-01-25T04:22:13.937Z,38.40
2024-01-25T04:23:13.875Z,29.00
2024-01-25T04:24:13.839Z,30.40
2024-01-25T04:25:13.829Z,31.80
2024-01-25T04:26:13.805Z,36.80
2024-01-25T04:27:13.762Z,32.90
2024-01-25T04:28:13.783Z,36.00
2024-01-25T04:29:13.774Z,35.30
2024-01-25T04:30:13.762Z,36.20
2024-01-25T04:31:13.758Z,30.70
2024-01-25T04:32:13.734Z,34.60
2024-01-25T04:33:13.842Z,34.20
2024-01-25T04:34:13.801Z,36.70
2024-01-25T04:35:13.845Z,33.40
2024-01-25T04:36:13.667Z,34.80
2024-01-25T04:37:13.743Z,36.10
2024-01-25T04:38:13.646Z,36.40
2024-01-25T04:39:13.641Z,35.30
2024-01-25T04:40:13.702Z,37.20
2024-01-25T04:41:13.681Z,32.50
2024-01-25T04:42:13.718Z,27.60
2024-01-25T04:43:13.679Z,27.90
2024-01-25T04:44:13.593Z,34.90
2024-01-25T04:45:13.583Z,34.60
2024-01-25T04:46:13.619Z,28.10
2024-01-25T04:47:13.578Z,34.00
2024-01-25T04:48:13.712Z,29.70
2024-01-25T04:49:13.668Z,32.60
2024-01-25T04:50:13.776Z,34.80
2024-01-25T04:51:13.527Z,36.70
2024-01-25T04:52:13.559Z,30.60
2024-01-25T04:53:13.526Z,33.40
2024-01-25T04:54:13.482Z,28.10
2024-01-25T04:55:13.551Z,29.90
2024-01-25T04:56:13.492Z,31.40
2024-01-25T04:57:13.482Z,30.90
2024-01-25T04:58:13.590Z,30.50
2024-01-25T04:59:13.446Z,31.00
2024-01-25T05:00:13.436Z,35.70
2024-01-25T05:01:13.516Z,29.90
2024-01-25T05:02:13.575Z,31.60
2024-01-25T05:03:13.472Z,33.90
2024-01-25T05:04:13.499Z,28.10
2024-01-25T05:05:13.516Z,31.50
2024-01-25T05:06:13.378Z,29.50
2024-01-25T05:07:13.582Z,29.10
2024-01-25T05:08:13.491Z,29.20
2024-01-25T05:09:13.368Z,35.50
2024-01-25T05:10:13.468Z,32.70
2024-01-25T05:11:13.296Z,27.00
2024-01-25T05:12:13.292Z,27.10
2024-01-25T05:13:13.384Z,33.60
2024-01-25T05:14:13.284Z,31.10
2024-01-25T05:15:13.282Z,30.70
2024-01-25T05:16:13.335Z,34.30
2024-01-25T05:17:13.267Z,30.50
2024-01-25T05:18:13.364Z,29.50
2024-01-25T05:19:13.318Z,33.30
2024-01-25T05:20:13.490Z,32.30
2024-01-25T05:21:13.197Z,38.40
2024-01-25T05:22:13.263Z,31.20
2024-01-25T05:23:13.152Z,31.70
2024-01-25T05:24:13.156Z,29.40
2024-01-25T05:25:13.187Z,29.80
2024-01-25T05:26:13.154Z,26.20
2024-01-25T05:27:13.154Z,30.90
2024-01-25T05:28:13.186Z,33.20
2024-01-25T05:29:13.095Z,28.90
2024-01-25T05:30:13.106Z,33.70
2024-01-25T05:31:13.178Z,29.50
2024-01-25T05:32:13.072Z,27.40
2024-01-25T05:33:13.153Z,26.80
2024-01-25T05:34:13.286Z,35.30
2024-01-25T05:35:13.165Z,28.10
2024-01-25T05:36:13.043Z,28.70
2024-01-25T05:37:13.121Z,31.50
2024-01-25T05:38:13.040Z,26.50
2024-01-25T05:39:13.033Z,29.60
2024-01-25T05:40:13.082Z,32.00
2024-01-25T05:41:12.993Z,29.90
2024-01-25T05:42:13.020Z,30.00
2024-01-25T05:43:13.003Z,31.10
2024-01-25T05:44:13.016Z,30.10
2024-01-25T05:45:12.973Z,34.40
2024-01-25T05:46:13.003Z,35.00
2024-01-25T05:47:12.906Z,30.90
2024-01-25T05:48:13.040Z,30.50
2024-01-25T05:49:13.115Z,33.70
2024-01-25T05:50:12.939Z,31.30
2024-01-25T05:51:12.886Z,33.80
2024-01-25T05:52:12.925Z,31.60
2024-01-25T05:53:12.878Z,32.40
2024-01-25T05:54:12.872Z,29.90
2024-01-25T05:55:12.963Z,37.50
2024-01-25T05:56:12.837Z,40.30
2024-01-25T05:57:12.796Z,35.30
2024-01-25T05:58:12.854Z,39.10
2024-01-25T05:59:12.788Z,33.90
2024-01-25T06:00:12.826Z,38.70
2024-01-25T06:01:12.885Z,34.90
2024-01-25T06:02:12.866Z,42.30
2024-01-25T06:03:12.803Z,38.30
2024-01-25T06:04:12.815Z,37.20
2024-01-25T06:05:12.905Z,38.30
2024-01-25T06:06:12.867Z,38.10
2024-01-25T06:07:12.933Z,34.80
2024-01-25T06:08:12.806Z,37.00
2024-01-25T06:09:13.974Z,38.10
2024-01-25T06:10:12.763Z,33.10
2024-01-25T06:11:12.734Z,33.40
2024-01-25T06:12:12.764Z,36.80
2024-01-25T06:13:12.966Z,37.40
2024-01-25T06:14:12.706Z,28.60
2024-01-25T06:15:12.657Z,33.70
2024-01-25T06:16:12.631Z,32.10
2024-01-25T06:17:12.622Z,29.60
2024-01-25T06:18:12.683Z,29.80
2024-01-25T06:19:12.684Z,36.40
2024-01-25T06:20:12.742Z,33.10
2024-01-25T06:21:12.586Z,33.10
2024-01-25T06:22:12.594Z,30.40
2024-01-25T06:23:12.552Z,39.80
2024-01-25T06:24:12.531Z,34.70
2024-01-25T06:25:12.556Z,29.90
2024-01-25T06:26:12.550Z,33.00
2024-01-25T06:27:12.480Z,33.80
2024-01-25T06:28:12.546Z,35.60
2024-01-25T06:29:12.483Z,33.40
2024-01-25T06:30:12.486Z,30.50
2024-01-25T06:31:12.930Z,32.70
2024-01-25T06:32:16.459Z,34.70
2024-01-25T06:33:12.540Z,32.80
2024-01-25T06:34:12.684Z,36.50
2024-01-25T06:35:12.453Z,32.60
2024-01-25T06:36:12.443Z,36.70
2024-01-25T06:37:13.476Z,33.10
2024-01-25T06:38:12.373Z,36.90
2024-01-25T06:39:12.390Z,38.40
2024-01-25T06:40:12.397Z,34.70
2024-01-25T06:41:12.347Z,34.60
2024-01-25T06:42:12.330Z,35.70
2024-01-25T06:43:13.167Z,29.20
2024-01-25T06:44:12.349Z,34.20
2024-01-25T06:45:12.325Z,36.10
2024-01-25T06:46:12.299Z,32.50
2024-01-25T06:47:12.303Z,33.40
2024-01-25T06:48:12.426Z,31.20
2024-01-25T06:49:12.448Z,36.00
2024-01-25T06:50:12.381Z,36.30
2024-01-25T06:51:12.260Z,36.70
2024-01-25T06:52:12.293Z,33.60
2024-01-25T06:53:12.240Z,31.60
2024-01-25T06:54:12.350Z,32.40
2024-01-25T06:55:12.228Z,33.40
2024-01-25T06:56:12.216Z,31.00
2024-01-25T06:57:12.152Z,35.70
2024-01-25T06:58:12.190Z,30.80
2024-01-25T06:59:12.122Z,34.10
2024-01-25T07:00:12.188Z,38.00
2024-01-25T07:01:12.321Z,37.70
2024-01-25T07:02:12.236Z,36.80
2024-01-25T07:03:12.117Z,36.60
2024-01-25T07:04:12.148Z,37.60
2024-01-25T07:05:12.199Z,33.10
2024-01-25T07:06:12.123Z,35.70
2024-01-25T07:07:12.214Z,33.50
2024-01-25T07:08:12.018Z,31.30
2024-01-25T07:09:12.008Z,34.10
2024-01-25T07:10:12.063Z,33.40
2024-01-25T07:11:12.010Z,35.80
2024-01-25T07:12:12.004Z,35.50
2024-01-25T07:13:11.971Z,34.80
2024-01-25T07:14:11.953Z,28.70
2024-01-25T07:15:11.926Z,33.60
2024-01-25T07:16:11.995Z,34.90
2024-01-25T07:17:11.953Z,39.80
2024-01-25T07:18:11.932Z,33.80
2024-01-25T07:19:12.040Z,40.20
2024-01-25T07:20:12.203Z,58.40
2024-01-25T07:21:11.864Z,48.40
2024-01-25T07:22:11.883Z,36.10
2024-01-25T07:23:11.885Z,41.60
2024-01-25T07:24:11.829Z,34.00
2024-01-25T07:25:11.958Z,34.10
2024-01-25T07:26:11.860Z,32.80
2024-01-25T07:27:11.817Z,36.70
2024-01-25T07:28:11.849Z,31.20
2024-01-25T07:29:11.814Z,34.80
2024-01-25T07:30:11.802Z,34.30
2024-01-25T07:31:11.786Z,30.20
2024-01-25T07:32:11.750Z,36.70
2024-01-25T07:33:11.849Z,32.40
2024-01-25T07:34:11.850Z,37.60
2024-01-25T07:35:11.926Z,38.90
2024-01-25T07:36:11.738Z,29.50
2024-01-25T07:37:11.747Z,32.10
2024-01-25T07:38:11.668Z,31.50
2024-01-25T07:39:11.680Z,31.00
2024-01-25T07:40:11.745Z,34.70
2024-01-25T07:41:11.708Z,35.40
2024-01-25T07:42:11.637Z,25.40
2024-01-25T07:43:11.675Z,33.70
2024-01-25T07:44:11.889Z,42.30
2024-01-25T07:45:11.912Z,36.30
2024-01-25T07:46:11.775Z,33.80
2024-01-25T07:47:11.617Z,33.30
2024-01-25T07:48:15.210Z,37.00
2024-01-25T07:49:11.746Z,34.50
2024-01-25T07:50:11.679Z,32.50
2024-01-25T07:51:11.680Z,36.00
2024-01-25T07:52:11.646Z,38.80
2024-01-25T07:53:11.553Z,34.50
2024-01-25T07:54:11.577Z,30.10
2024-01-25T07:55:11.593Z,36.20
2024-01-25T07:56:11.512Z,31.90
2024-01-25T07:57:11.491Z,33.20
2024-01-25T07:58:11.635Z,33.50
2024-01-25T07:59:11.474Z,42.30
2024-01-25T08:00:11.506Z,33.10
2024-01-25T08:01:11.549Z,34.60
2024-01-25T08:02:11.574Z,33.00
2024-01-25T08:03:11.513Z,33.00
2024-01-25T08:04:11.546Z,38.10
2024-01-25T08:05:11.508Z,43.70
2024-01-25T08:06:11.457Z,37.80
2024-01-25T08:07:11.463Z,45.10
2024-01-25T08:08:11.502Z,35.90
2024-01-25T08:09:11.369Z,37.70
2024-01-25T08:10:11.439Z,35.80
2024-01-25T08:11:11.368Z,35.20
2024-01-25T08:12:11.327Z,38.80
2024-01-25T08:13:11.349Z,42.40
2024-01-25T08:14:11.497Z,40.80
2024-01-25T08:15:11.300Z,36.00
2024-01-25T08:16:11.310Z,36.40
2024-01-25T08:17:11.361Z,38.20
2024-01-25T08:18:11.382Z,30.80
2024-01-25T08:19:11.348Z,35.40
2024-01-25T08:20:11.402Z,39.70
2024-01-25T08:21:11.295Z,35.00
2024-01-25T08:22:11.312Z,32.50
2024-01-25T08:23:11.261Z,37.80
2024-01-25T08:24:11.256Z,34.60
2024-01-25T08:25:11.984Z,30.60
2024-01-25T08:26:11.220Z,33.40
2024-01-25T08:27:12.808Z,37.40
2024-01-25T08:28:11.253Z,31.40
2024-01-25T08:29:11.179Z,33.60
2024-01-25T08:30:11.166Z,42.80
2024-01-25T08:31:11.264Z,39.70
2024-01-25T08:32:11.132Z,34.90
2024-01-25T08:33:11.389Z,35.50
2024-01-25T08:34:11.422Z,33.60
2024-01-25T08:35:11.177Z,30.30
2024-01-25T08:36:11.156Z,34.80
2024-01-25T08:37:11.119Z,32.30
2024-01-25T08:38:11.093Z,38.50
2024-01-25T08:39:11.122Z,39.40
2024-01-25T08:40:11.212Z,37.90
2024-01-25T08:41:11.056Z,40.00
2024-01-25T08:42:11.067Z,35.20
2024-01-25T08:43:11.020Z,39.90
2024-01-25T08:44:11.002Z,36.20
2024-01-25T08:45:11.910Z,45.20
2024-01-25T08:46:11.061Z,34.10
2024-01-25T08:47:12.778Z,34.20
2024-01-25T08:48:11.106Z,38.30
2024-01-25T08:49:13.788Z,35.80
2024-01-25T08:50:11.034Z,30.60
2024-01-25T08:51:11.000Z,37.90
2024-01-25T08:52:11.445Z,35.70
2024-01-25T08:53:10.930Z,35.60
2024-01-25T08:54:10.909Z,39.50
2024-01-25T08:55:11.745Z,36.10
2024-01-25T08:56:13.784Z,33.20
2024-01-25T08:57:10.956Z,34.80
2024-01-25T08:58:10.897Z,41.20
2024-01-25T08:59:10.886Z,30.70
2024-01-25T09:00:10.855Z,30.50
2024-01-25T09:01:10.960Z,38.50
2024-01-25T09:02:10.975Z,37.70
2024-01-25T09:03:10.811Z,36.00
2024-01-25T09:04:10.873Z,32.90
2024-01-25T09:05:11.019Z,37.70
2024-01-25T09:06:10.905Z,34.40
2024-01-25T09:07:10.855Z,37.80
2024-01-25T09:08:10.944Z,35.00
2024-01-25T09:09:10.741Z,36.10
2024-01-25T09:10:11.101Z,28.10
2024-01-25T09:11:10.727Z,38.40
2024-01-25T09:12:10.700Z,35.50
2024-01-25T09:13:10.741Z,32.30
2024-01-25T09:14:10.669Z,32.00
2024-01-25T09:15:10.689Z,32.40
2024-01-25T09:16:10.786Z,35.20
2024-01-25T09:17:10.665Z,34.70
2024-01-25T09:18:10.800Z,37.10
2024-01-25T09:19:12.064Z,35.70
2024-01-25T09:20:10.779Z,35.20
2024-01-25T09:21:10.611Z,37.70
2024-01-25T09:22:10.773Z,31.90
2024-01-25T09:23:10.581Z,34.40
2024-01-25T09:24:10.555Z,41.20
2024-01-25T09:25:10.693Z,37.40
2024-01-25T09:26:10.574Z,32.50
2024-01-25T09:27:10.595Z,34.70
2024-01-25T09:28:10.714Z,33.20
2024-01-25T09:29:10.501Z,31.00
2024-01-25T09:30:10.511Z,33.30
2024-01-25T09:31:10.565Z,34.00
2024-01-25T09:32:10.489Z,37.60
2024-01-25T09:33:10.551Z,42.20
2024-01-25T09:34:10.663Z,37.30
2024-01-25T09:35:10.650Z,31.00
2024-01-25T09:36:10.532Z,37.20
2024-01-25T09:37:10.485Z,36.10
2024-01-25T09:38:10.433Z,38.30
2024-01-25T09:39:10.402Z,30.60
2024-01-25T09:40:10.489Z,36.00
2024-01-25T09:41:10.440Z,37.60
2024-01-25T09:42:10.373Z,37.00
2024-01-25T09:43:10.403Z,38.40
2024-01-25T09:44:10.356Z,37.70
2024-01-25T09:45:10.364Z,38.60
2024-01-25T09:46:10.362Z,41.80
2024-01-25T09:47:10.328Z,37.10
2024-01-25T09:48:12.802Z,37.80
2024-01-25T09:49:10.518Z,36.70
2024-01-25T09:50:10.466Z,36.40
2024-01-25T09:51:10.282Z,37.70
2024-01-25T09:52:10.318Z,40.70
2024-01-25T09:53:10.316Z,35.70
2024-01-25T09:54:10.251Z,39.90
2024-01-25T09:55:10.274Z,46.90
2024-01-25T09:56:10.232Z,48.30
2024-01-25T09:57:10.214Z,44.70
2024-01-25T09:58:10.285Z,46.90
2024-01-25T09:59:10.220Z,46.00
2024-01-25T10:00:10.206Z,41.50
2024-01-25T10:01:10.429Z,44.80
2024-01-25T10:02:10.269Z,44.30
2024-01-25T10:03:10.139Z,43.50
2024-01-25T10:04:10.357Z,43.20
2024-01-25T10:05:10.389Z,43.40
2024-01-25T10:06:10.370Z,46.70
2024-01-25T10:07:10.419Z,44.50
2024-01-25T10:08:10.190Z,45.40
2024-01-25T10:09:10.075Z,46.20
2024-01-25T10:10:10.211Z,46.30
2024-01-25T10:11:10.095Z,50.40
2024-01-25T10:12:17.870Z,53.60
2024-01-25T10:13:10.227Z,46.90
2024-01-25T10:14:10.063Z,47.10
2024-01-25T10:15:10.048Z,52.70
2024-01-25T10:16:10.034Z,49.20
2024-01-25T10:17:10.095Z,54.00
2024-01-25T10:18:21.072Z,40.30
2024-01-25T10:19:10.211Z,51.90
2024-01-25T10:20:10.258Z,53.70
2024-01-25T10:21:10.199Z,50.90
2024-01-25T10:22:10.229Z,54.20
2024-01-25T10:23:10.019Z,49.60
2024-01-25T10:24:10.942Z,49.40
2024-01-25T10:25:10.106Z,52.10
2024-01-25T10:26:09.906Z,49.50
2024-01-25T10:27:09.900Z,47.60
2024-01-25T10:28:10.005Z,57.60
2024-01-25T10:29:09.985Z,51.00
2024-01-25T10:30:09.916Z,48.80
2024-01-25T10:31:10.064Z,52.70
2024-01-25T10:32:09.899Z,52.80
2024-01-25T10:33:10.043Z,53.40
2024-01-25T10:34:09.947Z,58.70
2024-01-25T10:35:10.063Z,49.20
2024-01-25T10:36:09.797Z,50.90
2024-01-25T10:37:10.022Z,57.90
2024-01-25T10:38:10.473Z,52.50
2024-01-25T10:39:09.787Z,49.70
2024-01-25T10:40:09.893Z,50.40
2024-01-25T10:41:09.786Z,51.50
2024-01-25T10:42:09.795Z,51.10
2024-01-25T10:43:11.424Z,50.10
2024-01-25T10:44:11.770Z,49.90
2024-01-25T10:45:09.786Z,53.10
2024-01-25T10:46:09.738Z,51.40
2024-01-25T10:47:09.734Z,54.60
2024-01-25T10:48:09.910Z,52.00
2024-01-25T10:49:09.998Z,48.80
2024-01-25T10:50:09.817Z,55.30
2024-01-25T10:51:09.638Z,52.70
2024-01-25T10:52:09.723Z,50.20
2024-01-25T10:53:09.620Z,59.30
2024-01-25T10:54:09.648Z,56.00
2024-01-25T10:55:09.668Z,45.20
2024-01-25T10:56:09.608Z,51.30
2024-01-25T10:57:09.613Z,49.00
2024-01-25T10:58:09.804Z,48.00
2024-01-25T10:59:09.584Z,45.90
2024-01-25T11:00:09.559Z,50.90
2024-01-25T11:01:10.700Z,49.20
2024-01-25T11:02:09.677Z,52.10
2024-01-25T11:03:09.541Z,47.20
2024-01-25T11:04:09.606Z,49.20
2024-01-25T11:05:09.650Z,50.80
2024-01-25T11:06:09.551Z,45.00
2024-01-25T11:07:09.577Z,46.40
2024-01-25T11:08:09.584Z,48.30
2024-01-25T11:09:09.493Z,44.40
2024-01-25T11:10:09.536Z,44.80
2024-01-25T11:11:09.442Z,41.30
2024-01-25T11:12:09.433Z,48.60
2024-01-25T11:13:09.437Z,37.90
2024-01-25T11:14:09.449Z,45.80
2024-01-25T11:15:09.430Z,41.70
2024-01-25T11:16:09.404Z,48.00
2024-01-25T11:17:09.359Z,41.10
2024-01-25T11:18:09.793Z,46.40
2024-01-25T11:19:09.580Z,41.20
2024-01-25T11:20:09.548Z,48.00
2024-01-25T11:21:09.327Z,54.10
2024-01-25T11:22:09.353Z,46.90
2024-01-25T11:23:09.337Z,43.90
2024-01-25T11:24:09.344Z,38.50
2024-01-25T11:25:09.410Z,42.50
2024-01-25T11:26:09.338Z,41.80
2024-01-25T11:27:09.288Z,41.60
2024-01-25T11:28:09.395Z,40.40
2024-01-25T11:29:09.241Z,45.00
2024-01-25T11:30:09.299Z,37.40
2024-01-25T11:31:09.314Z,42.40
2024-01-25T11:32:09.217Z,37.30
2024-01-25T11:33:09.339Z,37.30
2024-01-25T11:34:09.278Z,40.00
2024-01-25T11:35:09.310Z,44.00
2024-01-25T11:36:09.294Z,44.90
2024-01-25T11:37:09.280Z,43.20
2024-01-25T11:38:09.168Z,39.20
2024-01-25T11:39:09.149Z,42.60
2024-01-25T11:40:09.190Z,45.40
2024-01-25T11:41:09.123Z,40.90
2024-01-25T11:42:09.233Z,42.90
2024-01-25T11:43:09.243Z,41.70
2024-01-25T11:44:09.171Z,34.10
2024-01-25T11:45:09.139Z,40.50
2024-01-25T11:46:09.300Z,41.10
2024-01-25T11:47:09.135Z,38.80
2024-01-25T11:48:09.124Z,43.80
2024-01-25T11:49:09.316Z,40.10
2024-01-25T11:50:09.339Z,43.50
2024-01-25T11:51:09.034Z,39.70
2024-01-25T11:52:09.131Z,38.90
2024-01-25T11:53:09.011Z,34.80
2024-01-25T11:54:09.446Z,37.60
2024-01-25T11:55:09.147Z,39.80
2024-01-25T11:56:09.197Z,41.30
2024-01-25T11:57:08.990Z,37.00
2024-01-25T11:58:09.020Z,39.70
2024-01-25T11:59:08.946Z,40.40
2024-01-25T12:00:08.954Z,51.80
2024-01-25T12:01:09.139Z,40.80
2024-01-25T12:02:09.090Z,40.30
2024-01-25T12:03:08.914Z,41.10
2024-01-25T12:04:09.460Z,41.60
2024-01-25T12:05:09.095Z,40.70
2024-01-25T12:06:09.173Z,35.90
2024-01-25T12:07:09.055Z,36.20
2024-01-25T12:08:08.912Z,39.20
2024-01-25T12:09:08.821Z,36.70
2024-01-25T12:10:08.912Z,40.30
2024-01-25T12:11:08.841Z,38.20
2024-01-25T12:12:08.846Z,41.10
2024-01-25T12:13:08.848Z,36.00
2024-01-25T12:14:08.774Z,37.80
2024-01-25T12:15:08.805Z,35.00
2024-01-25T12:16:08.990Z,33.10
2024-01-25T12:17:08.752Z,34.50
2024-01-25T12:18:08.843Z,38.20
2024-01-25T12:19:09.112Z,38.10
2024-01-25T12:20:09.063Z,38.50
2024-01-25T12:21:08.754Z,32.70
2024-01-25T12:22:08.836Z,33.00
2024-01-25T12:23:08.677Z,33.00
2024-01-25T12:24:08.705Z,33.30
2024-01-25T12:25:08.721Z,32.80
2024-01-25T12:26:09.369Z,33.70
2024-01-25T12:27:08.635Z,36.00
2024-01-25T12:28:08.678Z,37.10
2024-01-25T12:29:08.625Z,33.60
2024-01-25T12:30:08.629Z,36.30
2024-01-25T12:31:08.839Z,31.70
2024-01-25T12:32:08.612Z,34.80
2024-01-25T12:33:08.709Z,33.90
2024-01-25T12:34:08.743Z,33.30
2024-01-25T12:35:08.652Z,30.70
2024-01-25T12:36:08.930Z,31.00
2024-01-25T12:37:08.599Z,36.40
2024-01-25T12:38:08.548Z,31.80
2024-01-25T12:39:08.528Z,32.50
2024-01-25T12:40:08.695Z,31.40
2024-01-25T12:41:08.521Z,37.10
2024-01-25T12:42:08.544Z,35.50
2024-01-25T12:43:08.543Z,35.90
2024-01-25T12:44:08.467Z,33.40
2024-01-25T12:45:08.455Z,36.10
2024-01-25T12:46:17.787Z,35.00
2024-01-25T12:47:08.523Z,33.70
2024-01-25T12:48:08.544Z,37.10
2024-01-25T12:49:08.487Z,39.50
2024-01-25T12:50:08.385Z,33.00
2024-01-25T12:51:08.375Z,33.70
2024-01-25T12:52:08.370Z,31.40